sensor_id;sensor_type;location;lat;lon;timestamp;P1;durP1;ratioP1;P2;durP2;ratioP2
40951;SDS011;26682;51.660;19.338;2022-09-02T00:01:23;3.13;;;1.35;;
40951;SDS011;26682;51.660;19.338;2022-09-02T00:03:12;3.53;;;1.13;;
40951;SDS011;26682;51.660;19.338;2022-09-02T00:04:58;4.50;;;1.30;;
40951;SDS011;26682;51.660;19.338;2022-09-02T00:06:44;2.22;;;1.35;;
40951;SDS011;26682;51.660;19.338;2022-09-02T00:08:32;2.88;;;1.38;;
40951;SDS011;26682;51.660;19.338;2022-09-02T00:10:18;2.00;;;1.35;;
40951;SDS011;26682;51.660;19.338;2022-09-02T00:12:05;2.90;;;1.45;;
40951;SDS011;26682;51.660;19.338;2022-09-02T00:13:52;2.20;;;1.02;;
40951;SDS011;26682;51.660;19.338;2022-09-02T00:15:38;2.13;;;1.00;;
40951;SDS011;26682;51.660;19.338;2022-09-02T00:17:25;2.50;;;1.17;;
40951;SDS011;26682;51.660;19.338;2022-09-02T00:19:12;1.53;;;1.13;;
40951;SDS011;26682;51.660;19.338;2022-09-02T00:20:59;1.58;;;0.90;;
40951;SDS011;26682;51.660;19.338;2022-09-02T00:22:45;9.80;;;2.95;;
40951;SDS011;26682;51.660;19.338;2022-09-02T00:24:31;4.53;;;1.10;;
40951;SDS011;26682;51.660;19.338;2022-09-02T00:26:17;2.05;;;1.08;;
40951;SDS011;26682;51.660;19.338;2022-09-02T00:28:04;2.20;;;1.13;;
40951;SDS011;26682;51.660;19.338;2022-09-02T00:29:50;2.23;;;1.30;;
40951;SDS011;26682;51.660;19.338;2022-09-02T00:31:38;1.27;;;1.08;;
40951;SDS011;26682;51.660;19.338;2022-09-02T00:33:23;1.92;;;1.10;;
40951;SDS011;26682;51.660;19.338;2022-09-02T00:35:10;1.90;;;1.20;;
40951;SDS011;26682;51.660;19.338;2022-09-02T00:36:55;2.13;;;1.25;;
40951;SDS011;26682;51.660;19.338;2022-09-02T00:38:41;1.33;;;0.90;;
40951;SDS011;26682;51.660;19.338;2022-09-02T00:40:27;2.15;;;1.20;;
40951;SDS011;26682;51.660;19.338;2022-09-02T00:42:13;2.50;;;1.40;;
40951;SDS011;26682;51.660;19.338;2022-09-02T00:44:03;1.90;;;1.30;;
40951;SDS011;26682;51.660;19.338;2022-09-02T00:45:54;2.83;;;1.50;;
40951;SDS011;26682;51.660;19.338;2022-09-02T00:47:40;4.10;;;1.40;;
40951;SDS011;26682;51.660;19.338;2022-09-02T00:49:27;3.20;;;1.40;;
40951;SDS011;26682;51.660;19.338;2022-09-02T00:51:15;2.95;;;1.40;;
40951;SDS011;26682;51.660;19.338;2022-09-02T00:53:04;2.78;;;1.15;;
40951;SDS011;26682;51.660;19.338;2022-09-02T00:54:57;3.03;;;1.30;;
40951;SDS011;26682;51.660;19.338;2022-09-02T00:56:44;4.03;;;1.35;;
40951;SDS011;26682;51.660;19.338;2022-09-02T00:58:32;3.55;;;1.40;;
40951;SDS011;26682;51.660;19.338;2022-09-02T01:00:23;2.03;;;1.30;;
40951;SDS011;26682;51.660;19.338;2022-09-02T01:02:11;2.47;;;1.30;;
40951;SDS011;26682;51.660;19.338;2022-09-02T01:03:57;1.88;;;1.02;;
40951;SDS011;26682;51.660;19.338;2022-09-02T01:05:46;2.40;;;1.30;;
40951;SDS011;26682;51.660;19.338;2022-09-02T01:07:34;1.33;;;1.00;;
40951;SDS011;26682;51.660;19.338;2022-09-02T01:09:22;1.88;;;1.25;;
40951;SDS011;26682;51.660;19.338;2022-09-02T01:11:08;2.42;;;1.42;;
40951;SDS011;26682;51.660;19.338;2022-09-02T01:12:56;1.77;;;1.30;;
40951;SDS011;26682;51.660;19.338;2022-09-02T01:14:43;2.03;;;1.30;;
40951;SDS011;26682;51.660;19.338;2022-09-02T01:16:30;1.50;;;1.00;;
40951;SDS011;26682;51.660;19.338;2022-09-02T01:18:22;3.22;;;1.10;;
40951;SDS011;26682;51.660;19.338;2022-09-02T01:20:15;2.92;;;1.20;;
40951;SDS011;26682;51.660;19.338;2022-09-02T01:22:05;2.30;;;1.10;;
40951;SDS011;26682;51.660;19.338;2022-09-02T01:25:48;2.08;;;1.10;;
40951;SDS011;26682;51.660;19.338;2022-09-02T01:27:34;2.03;;;1.10;;
40951;SDS011;26682;51.660;19.338;2022-09-02T01:29:21;2.08;;;1.10;;
40951;SDS011;26682;51.660;19.338;2022-09-02T01:31:08;5.82;;;1.40;;
40951;SDS011;26682;51.660;19.338;2022-09-02T01:32:54;2.70;;;1.45;;
40951;SDS011;26682;51.660;19.338;2022-09-02T01:34:40;2.15;;;1.30;;
40951;SDS011;26682;51.660;19.338;2022-09-02T01:36:26;4.57;;;1.88;;
40951;SDS011;26682;51.660;19.338;2022-09-02T01:38:12;2.03;;;1.17;;
40951;SDS011;26682;51.660;19.338;2022-09-02T01:39:59;3.30;;;1.27;;
40951;SDS011;26682;51.660;19.338;2022-09-02T01:41:45;3.17;;;1.30;;
40951;SDS011;26682;51.660;19.338;2022-09-02T01:43:32;1.73;;;1.17;;
40951;SDS011;26682;51.660;19.338;2022-09-02T01:45:18;3.45;;;1.17;;
40951;SDS011;26682;51.660;19.338;2022-09-02T01:47:04;5.50;;;1.73;;
40951;SDS011;26682;51.660;19.338;2022-09-02T01:48:50;2.20;;;1.20;;
40951;SDS011;26682;51.660;19.338;2022-09-02T01:50:36;1.83;;;1.23;;
40951;SDS011;26682;51.660;19.338;2022-09-02T01:52:25;5.32;;;1.40;;
40951;SDS011;26682;51.660;19.338;2022-09-02T01:54:12;2.88;;;1.52;;
40951;SDS011;26682;51.660;19.338;2022-09-02T01:55:59;3.85;;;1.58;;
40951;SDS011;26682;51.660;19.338;2022-09-02T01:57:47;2.65;;;1.40;;
40951;SDS011;26682;51.660;19.338;2022-09-02T01:59:33;1.83;;;1.40;;
40951;SDS011;26682;51.660;19.338;2022-09-02T02:01:19;2.70;;;1.52;;
40951;SDS011;26682;51.660;19.338;2022-09-02T02:03:06;2.55;;;1.50;;
40951;SDS011;26682;51.660;19.338;2022-09-02T02:04:51;2.83;;;1.30;;
40951;SDS011;26682;51.660;19.338;2022-09-02T02:06:41;5.57;;;1.63;;
40951;SDS011;26682;51.660;19.338;2022-09-02T02:08:28;3.40;;;1.52;;
40951;SDS011;26682;51.660;19.338;2022-09-02T02:10:17;3.28;;;1.45;;
40951;SDS011;26682;51.660;19.338;2022-09-02T02:12:05;3.65;;;1.52;;
40951;SDS011;26682;51.660;19.338;2022-09-02T02:13:52;2.85;;;1.60;;
40951;SDS011;26682;51.660;19.338;2022-09-02T02:17:26;2.40;;;1.40;;
40951;SDS011;26682;51.660;19.338;2022-09-02T02:19:12;3.45;;;1.38;;
40951;SDS011;26682;51.660;19.338;2022-09-02T02:20:59;3.95;;;1.85;;
40951;SDS011;26682;51.660;19.338;2022-09-02T02:22:45;4.53;;;1.80;;
40951;SDS011;26682;51.660;19.338;2022-09-02T02:24:31;2.38;;;1.50;;
40951;SDS011;26682;51.660;19.338;2022-09-02T02:26:19;3.05;;;1.60;;
40951;SDS011;26682;51.660;19.338;2022-09-02T02:28:05;3.17;;;2.00;;
40951;SDS011;26682;51.660;19.338;2022-09-02T02:29:52;5.45;;;2.42;;
40951;SDS011;26682;51.660;19.338;2022-09-02T02:31:38;4.03;;;2.08;;
40951;SDS011;26682;51.660;19.338;2022-09-02T02:33:26;5.65;;;1.88;;
40951;SDS011;26682;51.660;19.338;2022-09-02T02:35:16;4.88;;;1.75;;
40951;SDS011;26682;51.660;19.338;2022-09-02T02:37:04;6.22;;;2.00;;
40951;SDS011;26682;51.660;19.338;2022-09-02T02:38:50;2.03;;;1.73;;
40951;SDS011;26682;51.660;19.338;2022-09-02T02:40:36;3.47;;;1.92;;
40951;SDS011;26682;51.660;19.338;2022-09-02T02:42:23;6.03;;;1.90;;
40951;SDS011;26682;51.660;19.338;2022-09-02T02:44:09;4.13;;;1.80;;
40951;SDS011;26682;51.660;19.338;2022-09-02T02:45:56;3.42;;;1.98;;
40951;SDS011;26682;51.660;19.338;2022-09-02T02:47:42;4.30;;;1.70;;
40951;SDS011;26682;51.660;19.338;2022-09-02T02:49:30;8.18;;;1.90;;
40951;SDS011;26682;51.660;19.338;2022-09-02T02:51:20;5.00;;;2.38;;
40951;SDS011;26682;51.660;19.338;2022-09-02T02:53:08;4.25;;;1.85;;
40951;SDS011;26682;51.660;19.338;2022-09-02T02:54:56;6.68;;;2.10;;
40951;SDS011;26682;51.660;19.338;2022-09-02T02:56:43;3.33;;;2.10;;
40951;SDS011;26682;51.660;19.338;2022-09-02T02:58:29;3.83;;;2.30;;
40951;SDS011;26682;51.660;19.338;2022-09-02T03:00:20;5.50;;;2.28;;
40951;SDS011;26682;51.660;19.338;2022-09-02T03:02:08;6.70;;;3.05;;
40951;SDS011;26682;51.660;19.338;2022-09-02T03:03:54;5.47;;;2.10;;
40951;SDS011;26682;51.660;19.338;2022-09-02T03:05:41;4.30;;;2.30;;
40951;SDS011;26682;51.660;19.338;2022-09-02T03:07:27;3.75;;;2.10;;
40951;SDS011;26682;51.660;19.338;2022-09-02T03:09:13;4.05;;;1.95;;
40951;SDS011;26682;51.660;19.338;2022-09-02T03:10:59;3.65;;;1.92;;
40951;SDS011;26682;51.660;19.338;2022-09-02T03:12:48;4.38;;;2.10;;
40951;SDS011;26682;51.660;19.338;2022-09-02T03:14:38;4.63;;;1.95;;
40951;SDS011;26682;51.660;19.338;2022-09-02T03:16:24;6.05;;;2.00;;
40951;SDS011;26682;51.660;19.338;2022-09-02T03:19:58;8.10;;;2.17;;
40951;SDS011;26682;51.660;19.338;2022-09-02T03:21:46;6.70;;;2.42;;
40951;SDS011;26682;51.660;19.338;2022-09-02T03:23:32;3.22;;;2.33;;
40951;SDS011;26682;51.660;19.338;2022-09-02T03:25:19;4.38;;;2.63;;
40951;SDS011;26682;51.660;19.338;2022-09-02T03:28:52;5.43;;;2.35;;
40951;SDS011;26682;51.660;19.338;2022-09-02T03:30:41;3.45;;;2.10;;
40951;SDS011;26682;51.660;19.338;2022-09-02T03:32:27;6.67;;;2.57;;
40951;SDS011;26682;51.660;19.338;2022-09-02T03:34:14;8.43;;;2.42;;
40951;SDS011;26682;51.660;19.338;2022-09-02T03:36:00;3.88;;;2.22;;
40951;SDS011;26682;51.660;19.338;2022-09-02T03:37:47;5.15;;;2.30;;
40951;SDS011;26682;51.660;19.338;2022-09-02T03:39:36;4.97;;;1.83;;
40951;SDS011;26682;51.660;19.338;2022-09-02T03:41:24;3.13;;;2.05;;
40951;SDS011;26682;51.660;19.338;2022-09-02T03:43:12;3.83;;;2.05;;
40951;SDS011;26682;51.660;19.338;2022-09-02T03:44:59;5.95;;;2.38;;
40951;SDS011;26682;51.660;19.338;2022-09-02T03:46:45;5.90;;;2.30;;
40951;SDS011;26682;51.660;19.338;2022-09-02T03:48:31;3.58;;;2.15;;
40951;SDS011;26682;51.660;19.338;2022-09-02T03:50:18;3.22;;;2.30;;
40951;SDS011;26682;51.660;19.338;2022-09-02T03:52:07;3.63;;;2.50;;
40951;SDS011;26682;51.660;19.338;2022-09-02T03:53:53;4.40;;;2.55;;
40951;SDS011;26682;51.660;19.338;2022-09-02T03:55:39;3.55;;;2.10;;
40951;SDS011;26682;51.660;19.338;2022-09-02T03:57:26;3.83;;;2.15;;
40951;SDS011;26682;51.660;19.338;2022-09-02T03:59:12;9.52;;;3.33;;
40951;SDS011;26682;51.660;19.338;2022-09-02T04:00:59;7.53;;;2.47;;
40951;SDS011;26682;51.660;19.338;2022-09-02T04:02:46;4.28;;;2.63;;
40951;SDS011;26682;51.660;19.338;2022-09-02T04:04:32;4.32;;;2.38;;
40951;SDS011;26682;51.660;19.338;2022-09-02T04:06:19;3.42;;;2.20;;
40951;SDS011;26682;51.660;19.338;2022-09-02T04:08:07;6.88;;;2.75;;
40951;SDS011;26682;51.660;19.338;2022-09-02T04:09:53;3.80;;;2.33;;
40951;SDS011;26682;51.660;19.338;2022-09-02T04:11:40;5.13;;;2.72;;
40951;SDS011;26682;51.660;19.338;2022-09-02T04:13:27;3.28;;;2.28;;
40951;SDS011;26682;51.660;19.338;2022-09-02T04:15:13;6.03;;;2.38;;
40951;SDS011;26682;51.660;19.338;2022-09-02T04:16:59;3.53;;;2.40;;
40951;SDS011;26682;51.660;19.338;2022-09-02T04:18:45;4.47;;;2.47;;
40951;SDS011;26682;51.660;19.338;2022-09-02T04:20:31;5.15;;;2.30;;
40951;SDS011;26682;51.660;19.338;2022-09-02T04:22:17;4.60;;;2.38;;
40951;SDS011;26682;51.660;19.338;2022-09-02T04:24:04;5.55;;;2.40;;
40951;SDS011;26682;51.660;19.338;2022-09-02T04:25:54;10.13;;;2.90;;
40951;SDS011;26682;51.660;19.338;2022-09-02T04:27:41;4.05;;;2.80;;
40951;SDS011;26682;51.660;19.338;2022-09-02T04:29:27;3.88;;;2.53;;
40951;SDS011;26682;51.660;19.338;2022-09-02T04:31:15;5.20;;;2.33;;
40951;SDS011;26682;51.660;19.338;2022-09-02T04:33:03;3.40;;;1.90;;
40951;SDS011;26682;51.660;19.338;2022-09-02T04:34:50;6.03;;;2.08;;
40951;SDS011;26682;51.660;19.338;2022-09-02T04:36:37;6.57;;;2.53;;
40951;SDS011;26682;51.660;19.338;2022-09-02T04:38:26;6.70;;;3.08;;
40951;SDS011;26682;51.660;19.338;2022-09-02T04:40:13;5.55;;;3.05;;
40951;SDS011;26682;51.660;19.338;2022-09-02T04:41:59;4.07;;;2.80;;
40951;SDS011;26682;51.660;19.338;2022-09-02T04:43:46;6.00;;;3.03;;
40951;SDS011;26682;51.660;19.338;2022-09-02T04:45:33;6.30;;;3.45;;
40951;SDS011;26682;51.660;19.338;2022-09-02T04:47:20;3.67;;;2.80;;
40951;SDS011;26682;51.660;19.338;2022-09-02T04:49:06;4.57;;;2.90;;
40951;SDS011;26682;51.660;19.338;2022-09-02T04:50:53;5.95;;;2.95;;
40951;SDS011;26682;51.660;19.338;2022-09-02T04:52:39;7.32;;;2.55;;
40951;SDS011;26682;51.660;19.338;2022-09-02T04:54:26;6.32;;;3.30;;
40951;SDS011;26682;51.660;19.338;2022-09-02T04:56:16;9.77;;;3.08;;
40951;SDS011;26682;51.660;19.338;2022-09-02T04:58:06;9.43;;;2.90;;
40951;SDS011;26682;51.660;19.338;2022-09-02T04:59:53;10.50;;;2.45;;
40951;SDS011;26682;51.660;19.338;2022-09-02T05:01:39;5.70;;;2.20;;
40951;SDS011;26682;51.660;19.338;2022-09-02T05:03:33;5.95;;;2.00;;
40951;SDS011;26682;51.660;19.338;2022-09-02T05:05:19;1.90;;;1.55;;
40951;SDS011;26682;51.660;19.338;2022-09-02T05:07:05;5.78;;;2.05;;
40951;SDS011;26682;51.660;19.338;2022-09-02T05:08:58;5.72;;;2.00;;
40951;SDS011;26682;51.660;19.338;2022-09-02T05:10:49;10.60;;;1.88;;
40951;SDS011;26682;51.660;19.338;2022-09-02T05:12:35;4.53;;;1.95;;
40951;SDS011;26682;51.660;19.338;2022-09-02T05:14:23;4.18;;;1.70;;
40951;SDS011;26682;51.660;19.338;2022-09-02T05:16:13;3.33;;;1.65;;
40951;SDS011;26682;51.660;19.338;2022-09-02T05:17:59;3.92;;;2.55;;
40951;SDS011;26682;51.660;19.338;2022-09-02T05:19:46;6.68;;;2.00;;
40951;SDS011;26682;51.660;19.338;2022-09-02T05:21:38;4.45;;;2.00;;
40951;SDS011;26682;51.660;19.338;2022-09-02T05:23:26;2.78;;;1.60;;
40951;SDS011;26682;51.660;19.338;2022-09-02T05:25:12;3.80;;;1.70;;
40951;SDS011;26682;51.660;19.338;2022-09-02T05:26:58;5.85;;;1.67;;
40951;SDS011;26682;51.660;19.338;2022-09-02T05:28:45;3.13;;;1.70;;
40951;SDS011;26682;51.660;19.338;2022-09-02T05:30:31;5.47;;;2.08;;
40951;SDS011;26682;51.660;19.338;2022-09-02T05:32:18;4.72;;;2.00;;
40951;SDS011;26682;51.660;19.338;2022-09-02T05:34:07;6.60;;;2.13;;
40951;SDS011;26682;51.660;19.338;2022-09-02T05:35:54;6.93;;;2.70;;
40951;SDS011;26682;51.660;19.338;2022-09-02T05:37:41;5.55;;;3.00;;
40951;SDS011;26682;51.660;19.338;2022-09-02T05:39:28;6.53;;;3.50;;
40951;SDS011;26682;51.660;19.338;2022-09-02T05:41:22;5.75;;;3.13;;
40951;SDS011;26682;51.660;19.338;2022-09-02T05:43:11;5.05;;;3.10;;
40951;SDS011;26682;51.660;19.338;2022-09-02T05:44:57;4.40;;;3.25;;
40951;SDS011;26682;51.660;19.338;2022-09-02T05:46:44;5.07;;;2.65;;
40951;SDS011;26682;51.660;19.338;2022-09-02T05:48:30;7.18;;;2.88;;
40951;SDS011;26682;51.660;19.338;2022-09-02T05:50:36;4.30;;;1.92;;
40951;SDS011;26682;51.660;19.338;2022-09-02T05:52:22;3.17;;;1.70;;
40951;SDS011;26682;51.660;19.338;2022-09-02T05:54:19;6.18;;;1.75;;
40951;SDS011;26682;51.660;19.338;2022-09-02T05:56:13;2.83;;;1.45;;
40951;SDS011;26682;51.660;19.338;2022-09-02T05:58:01;3.05;;;1.40;;
40951;SDS011;26682;51.660;19.338;2022-09-02T05:59:48;5.75;;;1.48;;
40951;SDS011;26682;51.660;19.338;2022-09-02T06:01:42;4.68;;;1.60;;
40951;SDS011;26682;51.660;19.338;2022-09-02T06:03:28;4.03;;;1.65;;
40951;SDS011;26682;51.660;19.338;2022-09-02T06:05:14;5.72;;;1.60;;
40951;SDS011;26682;51.660;19.338;2022-09-02T06:07:09;4.03;;;1.48;;
40951;SDS011;26682;51.660;19.338;2022-09-02T06:08:55;3.22;;;1.58;;
40951;SDS011;26682;51.660;19.338;2022-09-02T06:10:42;9.95;;;2.10;;
40951;SDS011;26682;51.660;19.338;2022-09-02T06:12:33;7.43;;;1.98;;
40951;SDS011;26682;51.660;19.338;2022-09-02T06:14:20;8.82;;;3.05;;
40951;SDS011;26682;51.660;19.338;2022-09-02T06:16:17;3.95;;;1.70;;
40951;SDS011;26682;51.660;19.338;2022-09-02T06:18:07;11.43;;;2.45;;
40951;SDS011;26682;51.660;19.338;2022-09-02T06:19:53;8.68;;;2.20;;
40951;SDS011;26682;51.660;19.338;2022-09-02T06:21:43;7.10;;;2.28;;
40951;SDS011;26682;51.660;19.338;2022-09-02T06:23:29;8.82;;;1.95;;
40951;SDS011;26682;51.660;19.338;2022-09-02T06:25:21;5.13;;;2.38;;
40951;SDS011;26682;51.660;19.338;2022-09-02T06:27:07;5.80;;;2.00;;
40951;SDS011;26682;51.660;19.338;2022-09-02T06:28:56;6.43;;;2.38;;
40951;SDS011;26682;51.660;19.338;2022-09-02T06:30:43;8.13;;;2.80;;
40951;SDS011;26682;51.660;19.338;2022-09-02T06:32:31;4.80;;;2.50;;
40951;SDS011;26682;51.660;19.338;2022-09-02T06:34:22;7.05;;;1.40;;
40951;SDS011;26682;51.660;19.338;2022-09-02T06:36:12;5.47;;;2.20;;
40951;SDS011;26682;51.660;19.338;2022-09-02T06:38:00;4.47;;;1.45;;
40951;SDS011;26682;51.660;19.338;2022-09-02T06:39:47;10.88;;;1.90;;
40951;SDS011;26682;51.660;19.338;2022-09-02T06:41:40;2.30;;;1.20;;
40951;SDS011;26682;51.660;19.338;2022-09-02T06:43:30;5.07;;;1.20;;
40951;SDS011;26682;51.660;19.338;2022-09-02T06:45:30;3.88;;;1.10;;
40951;SDS011;26682;51.660;19.338;2022-09-02T06:47:19;5.25;;;1.80;;
40951;SDS011;26682;51.660;19.338;2022-09-02T06:49:08;3.85;;;1.30;;
40951;SDS011;26682;51.660;19.338;2022-09-02T06:50:56;7.20;;;1.58;;
40951;SDS011;26682;51.660;19.338;2022-09-02T06:52:42;11.35;;;1.15;;
40951;SDS011;26682;51.660;19.338;2022-09-02T06:54:29;4.35;;;1.20;;
40951;SDS011;26682;51.660;19.338;2022-09-02T06:56:25;4.05;;;1.38;;
40951;SDS011;26682;51.660;19.338;2022-09-02T06:58:12;2.75;;;1.20;;
40951;SDS011;26682;51.660;19.338;2022-09-02T06:59:59;2.90;;;1.35;;
40951;SDS011;26682;51.660;19.338;2022-09-02T07:01:46;3.10;;;1.20;;
40951;SDS011;26682;51.660;19.338;2022-09-02T07:03:35;3.22;;;1.42;;
40951;SDS011;26682;51.660;19.338;2022-09-02T07:05:41;5.75;;;1.20;;
40951;SDS011;26682;51.660;19.338;2022-09-02T07:07:27;3.10;;;1.00;;
40951;SDS011;26682;51.660;19.338;2022-09-02T07:09:21;4.90;;;1.00;;
40951;SDS011;26682;51.660;19.338;2022-09-02T07:11:19;8.65;;;1.08;;
40951;SDS011;26682;51.660;19.338;2022-09-02T07:13:07;3.05;;;1.10;;
40951;SDS011;26682;51.660;19.338;2022-09-02T07:14:54;2.20;;;1.10;;
40951;SDS011;26682;51.660;19.338;2022-09-02T07:16:47;2.22;;;1.00;;
40951;SDS011;26682;51.660;19.338;2022-09-02T07:18:35;8.68;;;1.10;;
40951;SDS011;26682;51.660;19.338;2022-09-02T07:20:22;2.35;;;1.30;;
40951;SDS011;26682;51.660;19.338;2022-09-02T07:22:13;4.20;;;1.25;;
40951;SDS011;26682;51.660;19.338;2022-09-02T07:24:01;8.65;;;1.15;;
40951;SDS011;26682;51.660;19.338;2022-09-02T07:25:48;3.97;;;1.20;;
40951;SDS011;26682;51.660;19.338;2022-09-02T07:27:35;3.65;;;0.90;;
40951;SDS011;26682;51.660;19.338;2022-09-02T07:29:22;2.95;;;1.45;;
40951;SDS011;26682;51.660;19.338;2022-09-02T07:34:45;5.68;;;1.55;;
40951;SDS011;26682;51.660;19.338;2022-09-02T07:36:32;6.40;;;1.27;;
40951;SDS011;26682;51.660;19.338;2022-09-02T07:38:22;4.28;;;1.15;;
40951;SDS011;26682;51.660;19.338;2022-09-02T07:40:08;3.38;;;1.20;;
40951;SDS011;26682;51.660;19.338;2022-09-02T07:41:56;3.40;;;2.20;;
40951;SDS011;26682;51.660;19.338;2022-09-02T07:43:43;2.65;;;0.90;;
40951;SDS011;26682;51.660;19.338;2022-09-02T07:45:30;3.00;;;1.60;;
40951;SDS011;26682;51.660;19.338;2022-09-02T07:47:16;2.15;;;1.33;;
40951;SDS011;26682;51.660;19.338;2022-09-02T07:49:05;3.38;;;1.27;;
40951;SDS011;26682;51.660;19.338;2022-09-02T07:50:53;3.63;;;1.17;;
40951;SDS011;26682;51.660;19.338;2022-09-02T07:52:41;6.88;;;1.05;;
40951;SDS011;26682;51.660;19.338;2022-09-02T07:54:27;5.90;;;1.08;;
40951;SDS011;26682;51.660;19.338;2022-09-02T07:58:03;4.18;;;0.85;;
40951;SDS011;26682;51.660;19.338;2022-09-02T07:59:49;1.63;;;0.93;;
40951;SDS011;26682;51.660;19.338;2022-09-02T08:01:36;2.92;;;0.73;;
40951;SDS011;26682;51.660;19.338;2022-09-02T08:03:24;5.50;;;1.13;;
40951;SDS011;26682;51.660;19.338;2022-09-02T08:05:13;1.67;;;0.90;;
40951;SDS011;26682;51.660;19.338;2022-09-02T08:07:00;6.53;;;0.95;;
40951;SDS011;26682;51.660;19.338;2022-09-02T08:08:46;3.88;;;1.27;;
40951;SDS011;26682;51.660;19.338;2022-09-02T08:10:32;0.98;;;0.70;;
40951;SDS011;26682;51.660;19.338;2022-09-02T08:12:19;3.22;;;0.60;;
40951;SDS011;26682;51.660;19.338;2022-09-02T08:14:06;3.40;;;0.90;;
40951;SDS011;26682;51.660;19.338;2022-09-02T08:15:54;1.10;;;0.60;;
40951;SDS011;26682;51.660;19.338;2022-09-02T08:17:40;3.28;;;0.70;;
40951;SDS011;26682;51.660;19.338;2022-09-02T08:19:27;0.80;;;0.47;;
40951;SDS011;26682;51.660;19.338;2022-09-02T08:21:14;1.95;;;0.70;;
40951;SDS011;26682;51.660;19.338;2022-09-02T08:23:03;1.48;;;0.80;;
40951;SDS011;26682;51.660;19.338;2022-09-02T08:24:53;0.93;;;0.70;;
40951;SDS011;26682;51.660;19.338;2022-09-02T08:26:39;2.35;;;0.63;;
40951;SDS011;26682;51.660;19.338;2022-09-02T08:28:25;4.30;;;0.90;;
40951;SDS011;26682;51.660;19.338;2022-09-02T08:30:16;3.55;;;0.68;;
40951;SDS011;26682;51.660;19.338;2022-09-02T08:32:02;1.90;;;0.70;;
40951;SDS011;26682;51.660;19.338;2022-09-02T08:33:48;2.17;;;0.55;;
40951;SDS011;26682;51.660;19.338;2022-09-02T08:35:35;2.50;;;0.73;;
40951;SDS011;26682;51.660;19.338;2022-09-02T08:37:22;0.98;;;0.60;;
40951;SDS011;26682;51.660;19.338;2022-09-02T08:39:08;1.42;;;0.80;;
40951;SDS011;26682;51.660;19.338;2022-09-02T08:40:56;2.17;;;0.55;;
40951;SDS011;26682;51.660;19.338;2022-09-02T08:42:43;0.98;;;0.65;;
40951;SDS011;26682;51.660;19.338;2022-09-02T08:44:39;4.85;;;0.68;;
40951;SDS011;26682;51.660;19.338;2022-09-02T08:46:26;0.93;;;0.60;;
40951;SDS011;26682;51.660;19.338;2022-09-02T08:48:20;2.80;;;0.77;;
40951;SDS011;26682;51.660;19.338;2022-09-02T08:52:01;1.20;;;0.80;;
40951;SDS011;26682;51.660;19.338;2022-09-02T08:53:50;5.20;;;0.60;;
40951;SDS011;26682;51.660;19.338;2022-09-02T08:55:53;2.00;;;0.63;;
40951;SDS011;26682;51.660;19.338;2022-09-02T08:57:41;2.22;;;0.50;;
40951;SDS011;26682;51.660;19.338;2022-09-02T08:59:29;2.67;;;0.90;;
40951;SDS011;26682;51.660;19.338;2022-09-02T09:01:18;1.77;;;0.73;;
40951;SDS011;26682;51.660;19.338;2022-09-02T09:03:23;4.13;;;0.80;;
40951;SDS011;26682;51.660;19.338;2022-09-02T09:16:34;2.67;;;0.82;;
40951;SDS011;26682;51.660;19.338;2022-09-02T09:18:39;1.83;;;0.57;;
40951;SDS011;26682;51.660;19.338;2022-09-02T09:20:31;0.73;;;0.40;;
40951;SDS011;26682;51.660;19.338;2022-09-02T09:22:35;3.40;;;0.65;;
40951;SDS011;26682;51.660;19.338;2022-09-02T09:24:33;2.15;;;0.50;;
40951;SDS011;26682;51.660;19.338;2022-09-02T09:26:26;1.75;;;0.63;;
40951;SDS011;26682;51.660;19.338;2022-09-02T09:28:15;2.22;;;0.73;;
40951;SDS011;26682;51.660;19.338;2022-09-02T09:30:01;1.35;;;0.60;;
40951;SDS011;26682;51.660;19.338;2022-09-02T09:31:55;1.20;;;0.50;;
40951;SDS011;26682;51.660;19.338;2022-09-02T09:33:56;2.05;;;0.43;;
40951;SDS011;26682;51.660;19.338;2022-09-02T09:35:49;2.13;;;0.50;;
40951;SDS011;26682;51.660;19.338;2022-09-02T09:37:38;1.52;;;0.70;;
40951;SDS011;26682;51.660;19.338;2022-09-02T09:39:29;0.93;;;0.40;;
40951;SDS011;26682;51.660;19.338;2022-09-02T09:41:17;3.40;;;0.60;;
40951;SDS011;26682;51.660;19.338;2022-09-02T09:44:57;3.72;;;0.50;;
40951;SDS011;26682;51.660;19.338;2022-09-02T09:46:43;7.93;;;0.70;;
40951;SDS011;26682;51.660;19.338;2022-09-02T09:48:29;4.53;;;0.60;;
40951;SDS011;26682;51.660;19.338;2022-09-02T09:50:17;2.60;;;0.60;;
40951;SDS011;26682;51.660;19.338;2022-09-02T09:52:03;4.10;;;0.60;;
40951;SDS011;26682;51.660;19.338;2022-09-02T09:53:49;2.70;;;0.70;;
40951;SDS011;26682;51.660;19.338;2022-09-02T09:55:43;0.77;;;0.40;;
40951;SDS011;26682;51.660;19.338;2022-09-02T09:57:42;3.80;;;0.60;;
40951;SDS011;26682;51.660;19.338;2022-09-02T09:59:39;1.77;;;0.50;;
40951;SDS011;26682;51.660;19.338;2022-09-02T10:01:28;1.25;;;0.50;;
40951;SDS011;26682;51.660;19.338;2022-09-02T10:03:26;0.77;;;0.52;;
40951;SDS011;26682;51.660;19.338;2022-09-02T10:07:10;4.90;;;0.70;;
40951;SDS011;26682;51.660;19.338;2022-09-02T10:08:58;1.25;;;0.40;;
40951;SDS011;26682;51.660;19.338;2022-09-02T10:12:44;1.50;;;0.57;;
40951;SDS011;26682;51.660;19.338;2022-09-02T10:14:32;0.75;;;0.50;;
40951;SDS011;26682;51.660;19.338;2022-09-02T10:18:48;2.20;;;0.43;;
40951;SDS011;26682;51.660;19.338;2022-09-02T10:21:04;2.63;;;0.50;;
40951;SDS011;26682;51.660;19.338;2022-09-02T10:23:02;0.93;;;0.50;;
40951;SDS011;26682;51.660;19.338;2022-09-02T10:40:07;2.13;;;0.50;;
40951;SDS011;26682;51.660;19.338;2022-09-02T10:42:03;1.02;;;0.47;;
40951;SDS011;26682;51.660;19.338;2022-09-02T10:46:17;3.53;;;1.05;;
40951;SDS011;26682;51.660;19.338;2022-09-02T10:54:35;2.78;;;0.60;;
40951;SDS011;26682;51.660;19.338;2022-09-02T10:56:24;0.93;;;0.60;;
40951;SDS011;26682;51.660;19.338;2022-09-02T10:58:16;1.50;;;0.30;;
40951;SDS011;26682;51.660;19.338;2022-09-02T11:00:12;1.20;;;0.40;;
40951;SDS011;26682;51.660;19.338;2022-09-02T11:04:17;2.35;;;0.43;;
40951;SDS011;26682;51.660;19.338;2022-09-02T11:06:36;0.82;;;0.45;;
40951;SDS011;26682;51.660;19.338;2022-09-02T11:10:25;1.15;;;0.55;;
40951;SDS011;26682;51.660;19.338;2022-09-02T11:12:25;1.05;;;0.50;;
40951;SDS011;26682;51.660;19.338;2022-09-02T11:14:21;2.75;;;0.40;;
40951;SDS011;26682;51.660;19.338;2022-09-02T11:20:48;1.55;;;0.40;;
40951;SDS011;26682;51.660;19.338;2022-09-02T11:22:48;1.50;;;1.23;;
40951;SDS011;26682;51.660;19.338;2022-09-02T11:26:48;3.30;;;0.43;;
40951;SDS011;26682;51.660;19.338;2022-09-02T11:29:08;2.15;;;0.40;;
40951;SDS011;26682;51.660;19.338;2022-09-02T11:31:06;0.90;;;0.50;;
40951;SDS011;26682;51.660;19.338;2022-09-02T11:33:20;1.20;;;0.40;;
40951;SDS011;26682;51.660;19.338;2022-09-02T11:35:15;1.58;;;0.50;;
40951;SDS011;26682;51.660;19.338;2022-09-02T11:37:06;3.28;;;0.68;;
40951;SDS011;26682;51.660;19.338;2022-09-02T11:38:59;1.20;;;0.60;;
40951;SDS011;26682;51.660;19.338;2022-09-02T11:41:15;3.90;;;0.60;;
40951;SDS011;26682;51.660;19.338;2022-09-02T11:43:36;1.45;;;0.70;;
40951;SDS011;26682;51.660;19.338;2022-09-02T11:52:01;0.38;;;0.35;;
40951;SDS011;26682;51.660;19.338;2022-09-02T11:53:55;1.10;;;0.50;;
40951;SDS011;26682;51.660;19.338;2022-09-02T11:55:46;3.35;;;0.70;;
40951;SDS011;26682;51.660;19.338;2022-09-02T11:57:40;1.67;;;0.40;;
40951;SDS011;26682;51.660;19.338;2022-09-02T12:01:39;1.90;;;0.50;;
40951;SDS011;26682;51.660;19.338;2022-09-02T12:03:35;1.88;;;0.60;;
40951;SDS011;26682;51.660;19.338;2022-09-02T12:09:01;1.80;;;0.40;;